sensor_id;sensor_type;location;lat;lon;timestamp;P1;durP1;ratioP1;P2;durP2;ratioP2
66169;SDS011;52971;44.024;20.456;2022-07-29T00:00:45;5.30;;;4.80;;
66169;SDS011;52971;44.024;20.456;2022-07-29T00:03:11;7.38;;;5.13;;
66169;SDS011;52971;44.024;20.456;2022-07-29T00:05:38;5.40;;;4.32;;
66169;SDS011;52971;44.024;20.456;2022-07-29T00:08:04;7.90;;;4.95;;
66169;SDS011;52971;44.024;20.456;2022-07-29T00:10:30;5.82;;;4.93;;
66169;SDS011;52971;44.024;20.456;2022-07-29T00:12:56;6.47;;;4.60;;
66169;SDS011;52971;44.024;20.456;2022-07-29T00:15:21;6.47;;;4.93;;
66169;SDS011;52971;44.024;20.456;2022-07-29T00:17:47;5.13;;;4.53;;
66169;SDS011;52971;44.024;20.456;2022-07-29T00:20:13;5.28;;;4.78;;
66169;SDS011;52971;44.024;20.456;2022-07-29T00:22:38;8.07;;;5.32;;
66169;SDS011;52971;44.024;20.456;2022-07-29T00:25:04;4.70;;;4.20;;
66169;SDS011;52971;44.024;20.456;2022-07-29T00:27:31;5.57;;;4.57;;
66169;SDS011;52971;44.024;20.456;2022-07-29T00:29:56;7.25;;;5.18;;
66169;SDS011;52971;44.024;20.456;2022-07-29T00:32:22;7.00;;;5.43;;
66169;SDS011;52971;44.024;20.456;2022-07-29T00:34:47;5.50;;;4.78;;
66169;SDS011;52971;44.024;20.456;2022-07-29T00:37:31;5.90;;;5.30;;
66169;SDS011;52971;44.024;20.456;2022-07-29T00:39:57;4.78;;;4.28;;
66169;SDS011;52971;44.024;20.456;2022-07-29T00:42:23;5.72;;;5.00;;
66169;SDS011;52971;44.024;20.456;2022-07-29T00:44:48;5.78;;;4.65;;
66169;SDS011;52971;44.024;20.456;2022-07-29T00:47:13;5.55;;;4.95;;
66169;SDS011;52971;44.024;20.456;2022-07-29T00:49:39;8.43;;;5.35;;
66169;SDS011;52971;44.024;20.456;2022-07-29T00:52:06;8.07;;;4.55;;
66169;SDS011;52971;44.024;20.456;2022-07-29T00:54:34;8.05;;;5.70;;
66169;SDS011;52971;44.024;20.456;2022-07-29T00:57:00;7.25;;;5.90;;
66169;SDS011;52971;44.024;20.456;2022-07-29T00:59:26;6.85;;;6.13;;
66169;SDS011;52971;44.024;20.456;2022-07-29T01:01:52;10.18;;;5.88;;
66169;SDS011;52971;44.024;20.456;2022-07-29T01:04:18;6.00;;;5.45;;
66169;SDS011;52971;44.024;20.456;2022-07-29T01:06:45;7.65;;;5.32;;
66169;SDS011;52971;44.024;20.456;2022-07-29T01:09:10;6.20;;;5.50;;
66169;SDS011;52971;44.024;20.456;2022-07-29T01:11:38;6.70;;;5.40;;
66169;SDS011;52971;44.024;20.456;2022-07-29T01:14:04;7.10;;;5.40;;
66169;SDS011;52971;44.024;20.456;2022-07-29T01:16:32;6.40;;;5.20;;
66169;SDS011;52971;44.024;20.456;2022-07-29T01:27:32;7.15;;;5.00;;
66169;SDS011;52971;44.024;20.456;2022-07-29T01:30:03;8.45;;;5.45;;
66169;SDS011;52971;44.024;20.456;2022-07-29T01:32:29;9.95;;;5.47;;
66169;SDS011;52971;44.024;20.456;2022-07-29T01:37:45;7.38;;;5.97;;
66169;SDS011;52971;44.024;20.456;2022-07-29T01:43:00;7.03;;;5.07;;
66169;SDS011;52971;44.024;20.456;2022-07-29T01:48:05;5.93;;;5.43;;
66169;SDS011;52971;44.024;20.456;2022-07-29T01:53:09;7.07;;;6.38;;
66169;SDS011;52971;44.024;20.456;2022-07-29T01:55:42;6.85;;;5.05;;
66169;SDS011;52971;44.024;20.456;2022-07-29T01:58:11;7.07;;;5.35;;
66169;SDS011;52971;44.024;20.456;2022-07-29T02:00:39;5.82;;;4.82;;
66169;SDS011;52971;44.024;20.456;2022-07-29T02:03:11;6.10;;;5.32;;
66169;SDS011;52971;44.024;20.456;2022-07-29T02:05:37;8.20;;;5.70;;
66169;SDS011;52971;44.024;20.456;2022-07-29T02:08:07;9.02;;;6.05;;
66169;SDS011;52971;44.024;20.456;2022-07-29T02:10:34;7.10;;;5.57;;
66169;SDS011;52971;44.024;20.456;2022-07-29T02:13:02;6.82;;;6.13;;
66169;SDS011;52971;44.024;20.456;2022-07-29T02:15:29;8.77;;;5.55;;
66169;SDS011;52971;44.024;20.456;2022-07-29T02:18:01;7.47;;;6.07;;
66169;SDS011;52971;44.024;20.456;2022-07-29T02:20:32;8.95;;;5.75;;
66169;SDS011;52971;44.024;20.456;2022-07-29T02:22:59;10.65;;;6.43;;
66169;SDS011;52971;44.024;20.456;2022-07-29T02:25:25;6.82;;;6.13;;
66169;SDS011;52971;44.024;20.456;2022-07-29T02:27:52;8.48;;;6.28;;
66169;SDS011;52971;44.024;20.456;2022-07-29T02:30:19;8.50;;;6.32;;
66169;SDS011;52971;44.024;20.456;2022-07-29T02:32:47;7.72;;;5.68;;
66169;SDS011;52971;44.024;20.456;2022-07-29T02:35:14;6.63;;;5.43;;
66169;SDS011;52971;44.024;20.456;2022-07-29T02:37:42;6.88;;;5.90;;
66169;SDS011;52971;44.024;20.456;2022-07-29T02:40:12;6.50;;;5.70;;
66169;SDS011;52971;44.024;20.456;2022-07-29T02:42:41;6.93;;;5.50;;
66169;SDS011;52971;44.024;20.456;2022-07-29T02:45:09;6.63;;;6.03;;
66169;SDS011;52971;44.024;20.456;2022-07-29T02:47:36;6.95;;;6.30;;
66169;SDS011;52971;44.024;20.456;2022-07-29T02:50:11;6.18;;;5.57;;
66169;SDS011;52971;44.024;20.456;2022-07-29T02:52:54;6.18;;;5.65;;
66169;SDS011;52971;44.024;20.456;2022-07-29T02:55:37;7.32;;;6.57;;
66169;SDS011;52971;44.024;20.456;2022-07-29T03:00:55;7.70;;;6.30;;
66169;SDS011;52971;44.024;20.456;2022-07-29T03:03:24;6.97;;;6.38;;
66169;SDS011;52971;44.024;20.456;2022-07-29T03:05:55;6.68;;;6.07;;
66169;SDS011;52971;44.024;20.456;2022-07-29T03:08:22;16.92;;;6.43;;
66169;SDS011;52971;44.024;20.456;2022-07-29T03:10:48;7.10;;;6.05;;
66169;SDS011;52971;44.024;20.456;2022-07-29T03:13:14;7.50;;;6.80;;
66169;SDS011;52971;44.024;20.456;2022-07-29T03:15:42;6.63;;;5.63;;
66169;SDS011;52971;44.024;20.456;2022-07-29T03:18:08;6.47;;;5.88;;
66169;SDS011;52971;44.024;20.456;2022-07-29T03:20:34;6.95;;;6.22;;
66169;SDS011;52971;44.024;20.456;2022-07-29T03:23:00;8.48;;;6.70;;
66169;SDS011;52971;44.024;20.456;2022-07-29T03:25:25;7.40;;;6.35;;
66169;SDS011;52971;44.024;20.456;2022-07-29T03:27:52;11.15;;;6.70;;
66169;SDS011;52971;44.024;20.456;2022-07-29T03:30:17;7.25;;;6.55;;
66169;SDS011;52971;44.024;20.456;2022-07-29T03:32:43;10.50;;;7.30;;
66169;SDS011;52971;44.024;20.456;2022-07-29T03:35:09;7.32;;;6.63;;
66169;SDS011;52971;44.024;20.456;2022-07-29T03:37:35;8.43;;;6.90;;
66169;SDS011;52971;44.024;20.456;2022-07-29T03:40:02;7.13;;;6.38;;
66169;SDS011;52971;44.024;20.456;2022-07-29T03:42:32;7.05;;;6.43;;
66169;SDS011;52971;44.024;20.456;2022-07-29T03:45:02;7.45;;;6.45;;
66169;SDS011;52971;44.024;20.456;2022-07-29T03:47:31;7.78;;;7.07;;
66169;SDS011;52971;44.024;20.456;2022-07-29T03:50:00;7.30;;;6.53;;
66169;SDS011;52971;44.024;20.456;2022-07-29T03:52:30;7.43;;;6.68;;
66169;SDS011;52971;44.024;20.456;2022-07-29T03:54:56;7.70;;;6.93;;
66169;SDS011;52971;44.024;20.456;2022-07-29T03:57:23;8.75;;;6.85;;
66169;SDS011;52971;44.024;20.456;2022-07-29T03:59:52;8.25;;;6.35;;
66169;SDS011;52971;44.024;20.456;2022-07-29T04:02:18;7.80;;;6.30;;
66169;SDS011;52971;44.024;20.456;2022-07-29T04:04:44;8.00;;;6.50;;
66169;SDS011;52971;44.024;20.456;2022-07-29T04:07:13;7.53;;;6.57;;
66169;SDS011;52971;44.024;20.456;2022-07-29T04:09:39;6.93;;;6.22;;
66169;SDS011;52971;44.024;20.456;2022-07-29T04:12:05;7.60;;;6.90;;
66169;SDS011;52971;44.024;20.456;2022-07-29T04:14:31;7.10;;;6.05;;
66169;SDS011;52971;44.024;20.456;2022-07-29T04:16:57;8.80;;;7.13;;
66169;SDS011;52971;44.024;20.456;2022-07-29T04:19:23;12.63;;;7.78;;
66169;SDS011;52971;44.024;20.456;2022-07-29T04:21:49;8.38;;;7.22;;
66169;SDS011;52971;44.024;20.456;2022-07-29T04:24:14;9.63;;;7.80;;
66169;SDS011;52971;44.024;20.456;2022-07-29T04:26:40;11.13;;;8.38;;
66169;SDS011;52971;44.024;20.456;2022-07-29T04:29:05;10.82;;;8.90;;
66169;SDS011;52971;44.024;20.456;2022-07-29T04:31:31;13.07;;;10.27;;
66169;SDS011;52971;44.024;20.456;2022-07-29T04:33:56;18.55;;;11.20;;
66169;SDS011;52971;44.024;20.456;2022-07-29T04:36:22;18.38;;;9.98;;
66169;SDS011;52971;44.024;20.456;2022-07-29T04:38:48;16.60;;;9.95;;
66169;SDS011;52971;44.024;20.456;2022-07-29T04:41:13;20.50;;;10.20;;
66169;SDS011;52971;44.024;20.456;2022-07-29T04:43:39;21.95;;;11.57;;
66169;SDS011;52971;44.024;20.456;2022-07-29T04:46:05;16.50;;;10.43;;
66169;SDS011;52971;44.024;20.456;2022-07-29T04:48:31;21.13;;;10.07;;
66169;SDS011;52971;44.024;20.456;2022-07-29T04:50:57;24.20;;;10.15;;
66169;SDS011;52971;44.024;20.456;2022-07-29T04:53:22;14.65;;;8.93;;
66169;SDS011;52971;44.024;20.456;2022-07-29T04:55:48;10.25;;;7.70;;
66169;SDS011;52971;44.024;20.456;2022-07-29T04:58:14;10.52;;;7.45;;
66169;SDS011;52971;44.024;20.456;2022-07-29T05:00:39;10.20;;;8.18;;
66169;SDS011;52971;44.024;20.456;2022-07-29T05:03:05;15.23;;;9.80;;
66169;SDS011;52971;44.024;20.456;2022-07-29T05:05:31;18.80;;;10.38;;
66169;SDS011;52971;44.024;20.456;2022-07-29T05:07:56;17.60;;;9.45;;
66169;SDS011;52971;44.024;20.456;2022-07-29T05:10:23;17.75;;;10.05;;
66169;SDS011;52971;44.024;20.456;2022-07-29T05:12:48;17.65;;;10.38;;
66169;SDS011;52971;44.024;20.456;2022-07-29T05:15:14;13.85;;;9.60;;
66169;SDS011;52971;44.024;20.456;2022-07-29T05:17:39;14.85;;;9.15;;
66169;SDS011;52971;44.024;20.456;2022-07-29T05:20:05;17.60;;;9.50;;
66169;SDS011;52971;44.024;20.456;2022-07-29T05:22:32;18.25;;;8.45;;
66169;SDS011;52971;44.024;20.456;2022-07-29T05:24:58;16.42;;;8.48;;
66169;SDS011;52971;44.024;20.456;2022-07-29T05:27:23;17.20;;;7.80;;
66169;SDS011;52971;44.024;20.456;2022-07-29T05:29:49;14.02;;;8.32;;
66169;SDS011;52971;44.024;20.456;2022-07-29T05:32:14;10.52;;;6.80;;
66169;SDS011;52971;44.024;20.456;2022-07-29T05:34:40;11.98;;;7.10;;
66169;SDS011;52971;44.024;20.456;2022-07-29T05:37:06;9.60;;;6.63;;
66169;SDS011;52971;44.024;20.456;2022-07-29T05:39:32;12.68;;;7.85;;
66169;SDS011;52971;44.024;20.456;2022-07-29T05:41:57;12.93;;;8.23;;
66169;SDS011;52971;44.024;20.456;2022-07-29T05:44:23;12.90;;;7.72;;
66169;SDS011;52971;44.024;20.456;2022-07-29T05:46:48;9.25;;;6.57;;
66169;SDS011;52971;44.024;20.456;2022-07-29T05:49:14;8.88;;;7.20;;
66169;SDS011;52971;44.024;20.456;2022-07-29T05:51:39;9.05;;;6.32;;
66169;SDS011;52971;44.024;20.456;2022-07-29T05:54:05;7.22;;;6.15;;
66169;SDS011;52971;44.024;20.456;2022-07-29T05:56:30;10.02;;;6.80;;
66169;SDS011;52971;44.024;20.456;2022-07-29T05:58:56;11.50;;;6.80;;
66169;SDS011;52971;44.024;20.456;2022-07-29T06:01:22;11.57;;;6.95;;
66169;SDS011;52971;44.024;20.456;2022-07-29T06:03:47;9.07;;;5.70;;
66169;SDS011;52971;44.024;20.456;2022-07-29T06:06:13;10.95;;;6.05;;
66169;SDS011;52971;44.024;20.456;2022-07-29T06:08:39;10.85;;;5.35;;
66169;SDS011;52971;44.024;20.456;2022-07-29T06:11:05;6.43;;;5.68;;
66169;SDS011;52971;44.024;20.456;2022-07-29T06:13:32;4.97;;;4.47;;
66169;SDS011;52971;44.024;20.456;2022-07-29T06:15:57;6.90;;;4.63;;
66169;SDS011;52971;44.024;20.456;2022-07-29T06:18:23;4.85;;;4.35;;
66169;SDS011;52971;44.024;20.456;2022-07-29T06:20:51;4.00;;;3.38;;
66169;SDS011;52971;44.024;20.456;2022-07-29T06:23:18;4.32;;;3.70;;
66169;SDS011;52971;44.024;20.456;2022-07-29T06:25:44;3.95;;;3.60;;
66169;SDS011;52971;44.024;20.456;2022-07-29T06:28:10;5.93;;;3.83;;
66169;SDS011;52971;44.024;20.456;2022-07-29T06:30:36;5.47;;;4.00;;
66169;SDS011;52971;44.024;20.456;2022-07-29T06:33:01;5.20;;;4.13;;
66169;SDS011;52971;44.024;20.456;2022-07-29T06:35:28;5.03;;;4.18;;
66169;SDS011;52971;44.024;20.456;2022-07-29T06:37:54;6.55;;;3.72;;
66169;SDS011;52971;44.024;20.456;2022-07-29T06:40:19;5.07;;;3.78;;
66169;SDS011;52971;44.024;20.456;2022-07-29T06:43:04;5.70;;;3.75;;
66169;SDS011;52971;44.024;20.456;2022-07-29T06:45:29;9.23;;;3.88;;
66169;SDS011;52971;44.024;20.456;2022-07-29T06:47:55;7.35;;;3.95;;
66169;SDS011;52971;44.024;20.456;2022-07-29T06:50:20;3.95;;;3.65;;
66169;SDS011;52971;44.024;20.456;2022-07-29T06:52:46;4.55;;;4.07;;
66169;SDS011;52971;44.024;20.456;2022-07-29T06:55:12;3.65;;;3.08;;
66169;SDS011;52971;44.024;20.456;2022-07-29T06:57:38;5.90;;;3.58;;
66169;SDS011;52971;44.024;20.456;2022-07-29T07:00:03;4.82;;;3.00;;
66169;SDS011;52971;44.024;20.456;2022-07-29T07:02:30;7.65;;;4.18;;
66169;SDS011;52971;44.024;20.456;2022-07-29T07:04:55;3.60;;;3.28;;
66169;SDS011;52971;44.024;20.456;2022-07-29T07:07:21;4.97;;;3.40;;
66169;SDS011;52971;44.024;20.456;2022-07-29T07:09:46;3.88;;;3.05;;
66169;SDS011;52971;44.024;20.456;2022-07-29T07:12:12;4.97;;;3.20;;
66169;SDS011;52971;44.024;20.456;2022-07-29T07:14:37;5.13;;;3.42;;
66169;SDS011;52971;44.024;20.456;2022-07-29T07:17:03;4.43;;;3.83;;
66169;SDS011;52971;44.024;20.456;2022-07-29T07:19:29;4.10;;;3.70;;
66169;SDS011;52971;44.024;20.456;2022-07-29T07:21:54;4.45;;;3.22;;
66169;SDS011;52971;44.024;20.456;2022-07-29T07:24:20;5.30;;;3.30;;
66169;SDS011;52971;44.024;20.456;2022-07-29T07:26:46;4.55;;;3.92;;
66169;SDS011;52971;44.024;20.456;2022-07-29T07:29:11;5.97;;;3.95;;
66169;SDS011;52971;44.024;20.456;2022-07-29T07:31:37;6.07;;;3.80;;
66169;SDS011;52971;44.024;20.456;2022-07-29T07:34:03;5.85;;;3.53;;
66169;SDS011;52971;44.024;20.456;2022-07-29T07:36:29;5.22;;;4.07;;
66169;SDS011;52971;44.024;20.456;2022-07-29T07:38:54;6.75;;;3.65;;
66169;SDS011;52971;44.024;20.456;2022-07-29T07:41:20;7.45;;;4.00;;
66169;SDS011;52971;44.024;20.456;2022-07-29T07:43:47;6.50;;;3.42;;
66169;SDS011;52971;44.024;20.456;2022-07-29T07:46:12;3.75;;;3.40;;
66169;SDS011;52971;44.024;20.456;2022-07-29T07:48:38;4.55;;;3.28;;
66169;SDS011;52971;44.024;20.456;2022-07-29T07:51:05;6.15;;;3.90;;
66169;SDS011;52971;44.024;20.456;2022-07-29T07:53:30;11.35;;;4.13;;
66169;SDS011;52971;44.024;20.456;2022-07-29T07:55:56;5.80;;;3.97;;
66169;SDS011;52971;44.024;20.456;2022-07-29T07:58:21;6.63;;;4.50;;
66169;SDS011;52971;44.024;20.456;2022-07-29T08:00:47;5.13;;;3.55;;
66169;SDS011;52971;44.024;20.456;2022-07-29T08:03:12;4.82;;;3.58;;
66169;SDS011;52971;44.024;20.456;2022-07-29T08:05:39;5.03;;;3.60;;
66169;SDS011;52971;44.024;20.456;2022-07-29T08:08:05;8.15;;;3.50;;
66169;SDS011;52971;44.024;20.456;2022-07-29T08:10:31;5.57;;;3.97;;
66169;SDS011;52971;44.024;20.456;2022-07-29T08:13:16;3.83;;;3.10;;
66169;SDS011;52971;44.024;20.456;2022-07-29T08:15:42;5.47;;;3.90;;
66169;SDS011;52971;44.024;20.456;2022-07-29T08:18:10;3.92;;;3.47;;
66169;SDS011;52971;44.024;20.456;2022-07-29T08:20:36;5.65;;;4.03;;
66169;SDS011;52971;44.024;20.456;2022-07-29T08:23:03;6.70;;;4.18;;
66169;SDS011;52971;44.024;20.456;2022-07-29T08:25:29;3.97;;;3.33;;
66169;SDS011;52971;44.024;20.456;2022-07-29T08:27:55;4.00;;;3.45;;
66169;SDS011;52971;44.024;20.456;2022-07-29T08:30:20;4.45;;;4.05;;
66169;SDS011;52971;44.024;20.456;2022-07-29T08:32:47;4.95;;;3.60;;
66169;SDS011;52971;44.024;20.456;2022-07-29T08:35:14;4.97;;;3.80;;
66169;SDS011;52971;44.024;20.456;2022-07-29T08:37:39;3.88;;;3.58;;
66169;SDS011;52971;44.024;20.456;2022-07-29T08:40:05;3.75;;;3.40;;
66169;SDS011;52971;44.024;20.456;2022-07-29T08:42:31;5.07;;;3.92;;
66169;SDS011;52971;44.024;20.456;2022-07-29T08:44:56;4.38;;;4.00;;
66169;SDS011;52971;44.024;20.456;2022-07-29T08:47:22;4.93;;;4.07;;
66169;SDS011;52971;44.024;20.456;2022-07-29T08:49:51;7.65;;;3.80;;
66169;SDS011;52971;44.024;20.456;2022-07-29T08:52:16;3.70;;;3.40;;
66169;SDS011;52971;44.024;20.456;2022-07-29T08:54:43;4.28;;;3.88;;
66169;SDS011;52971;44.024;20.456;2022-07-29T08:57:10;5.28;;;3.67;;
66169;SDS011;52971;44.024;20.456;2022-07-29T08:59:39;8.18;;;3.55;;
66169;SDS011;52971;44.024;20.456;2022-07-29T09:02:08;7.72;;;3.78;;
66169;SDS011;52971;44.024;20.456;2022-07-29T09:04:43;4.45;;;4.05;;
66169;SDS011;52971;44.024;20.456;2022-07-29T09:07:10;4.85;;;3.80;;
66169;SDS011;52971;44.024;20.456;2022-07-29T09:09:40;3.72;;;2.97;;
66169;SDS011;52971;44.024;20.456;2022-07-29T09:12:06;4.72;;;3.85;;
66169;SDS011;52971;44.024;20.456;2022-07-29T09:14:33;3.70;;;3.35;;
66169;SDS011;52971;44.024;20.456;2022-07-29T09:16:59;8.88;;;3.92;;
66169;SDS011;52971;44.024;20.456;2022-07-29T09:19:33;7.00;;;3.47;;
66169;SDS011;52971;44.024;20.456;2022-07-29T09:22:05;6.55;;;3.90;;
66169;SDS011;52971;44.024;20.456;2022-07-29T09:29:45;4.97;;;3.55;;
66169;SDS011;52971;44.024;20.456;2022-07-29T09:32:10;6.20;;;4.05;;
66169;SDS011;52971;44.024;20.456;2022-07-29T09:34:36;5.13;;;3.53;;
66169;SDS011;52971;44.024;20.456;2022-07-29T09:37:02;4.20;;;3.80;;
66169;SDS011;52971;44.024;20.456;2022-07-29T09:39:38;3.88;;;3.58;;
66169;SDS011;52971;44.024;20.456;2022-07-29T09:42:10;4.30;;;4.00;;
66169;SDS011;52971;44.024;20.456;2022-07-29T09:44:44;5.25;;;4.20;;
66169;SDS011;52971;44.024;20.456;2022-07-29T09:47:11;5.40;;;3.95;;
66169;SDS011;52971;44.024;20.456;2022-07-29T09:49:55;5.97;;;3.83;;
66169;SDS011;52971;44.024;20.456;2022-07-29T09:52:26;4.13;;;3.50;;
66169;SDS011;52971;44.024;20.456;2022-07-29T09:54:53;7.57;;;4.30;;
66169;SDS011;52971;44.024;20.456;2022-07-29T09:57:32;6.32;;;4.03;;
66169;SDS011;52971;44.024;20.456;2022-07-29T09:59:58;3.65;;;3.30;;
66169;SDS011;52971;44.024;20.456;2022-07-29T10:02:33;4.70;;;4.00;;
66169;SDS011;52971;44.024;20.456;2022-07-29T10:05:02;4.20;;;3.75;;
66169;SDS011;52971;44.024;20.456;2022-07-29T10:10:18;9.35;;;3.63;;
66169;SDS011;52971;44.024;20.456;2022-07-29T10:12:48;3.70;;;3.38;;
66169;SDS011;52971;44.024;20.456;2022-07-29T10:15:18;3.45;;;3.15;;
66169;SDS011;52971;44.024;20.456;2022-07-29T10:17:44;3.60;;;3.30;;
66169;SDS011;52971;44.024;20.456;2022-07-29T10:20:10;3.17;;;2.95;;
66169;SDS011;52971;44.024;20.456;2022-07-29T10:22:36;3.70;;;3.40;;
66169;SDS011;52971;44.024;20.456;2022-07-29T10:25:02;3.58;;;3.00;;
66169;SDS011;52971;44.024;20.456;2022-07-29T10:27:28;4.03;;;3.42;;
66169;SDS011;52971;44.024;20.456;2022-07-29T10:29:54;4.25;;;3.85;;
66169;SDS011;52971;44.024;20.456;2022-07-29T10:32:29;3.88;;;3.55;;
66169;SDS011;52971;44.024;20.456;2022-07-29T10:43:28;5.20;;;3.50;;
66169;SDS011;52971;44.024;20.456;2022-07-29T10:45:58;3.47;;;3.20;;
66169;SDS011;52971;44.024;20.456;2022-07-29T10:48:25;9.40;;;8.50;;
66169;SDS011;52971;44.024;20.456;2022-07-29T10:50:54;7.70;;;5.07;;
66169;SDS011;52971;44.024;20.456;2022-07-29T10:53:46;3.78;;;3.47;;
66169;SDS011;52971;44.024;20.456;2022-07-29T10:56:23;3.60;;;3.30;;
66169;SDS011;52971;44.024;20.456;2022-07-29T10:59:36;4.75;;;3.45;;
66169;SDS011;52971;44.024;20.456;2022-07-29T11:01:46;4.80;;;3.10;;
66169;SDS011;52971;44.024;20.456;2022-07-29T11:04:13;2.95;;;2.75;;
66169;SDS011;52971;44.024;20.456;2022-07-29T11:09:23;3.47;;;3.17;;
66169;SDS011;52971;44.024;20.456;2022-07-29T11:11:49;3.22;;;3.03;;
66169;SDS011;52971;44.024;20.456;2022-07-29T11:14:14;3.85;;;3.10;;
66169;SDS011;52971;44.024;20.456;2022-07-29T11:16:58;3.47;;;3.17;;
66169;SDS011;52971;44.024;20.456;2022-07-29T11:19:31;3.47;;;3.22;;
66169;SDS011;52971;44.024;20.456;2022-07-29T11:21:57;3.72;;;3.42;;
66169;SDS011;52971;44.024;20.456;2022-07-29T11:24:27;6.68;;;4.85;;
66169;SDS011;52971;44.024;20.456;2022-07-29T11:29:55;3.10;;;2.90;;
66169;SDS011;52971;44.024;20.456;2022-07-29T11:32:23;3.17;;;2.97;;
66169;SDS011;52971;44.024;20.456;2022-07-29T11:35:10;2.95;;;2.75;;
66169;SDS011;52971;44.024;20.456;2022-07-29T11:37:40;3.45;;;3.25;;
66169;SDS011;52971;44.024;20.456;2022-07-29T11:45:02;4.30;;;2.83;;
66169;SDS011;52971;44.024;20.456;2022-07-29T11:47:31;2.92;;;2.72;;
66169;SDS011;52971;44.024;20.456;2022-07-29T11:49:58;6.63;;;3.17;;
66169;SDS011;52971;44.024;20.456;2022-07-29T11:52:41;3.80;;;2.88;;
66169;SDS011;52971;44.024;20.456;2022-07-29T11:55:11;3.00;;;2.80;;
66169;SDS011;52971;44.024;20.456;2022-07-29T12:00:45;4.65;;;2.92;;
66169;SDS011;52971;44.024;20.456;2022-07-29T12:03:11;2.95;;;2.65;;
66169;SDS011;52971;44.024;20.456;2022-07-29T12:05:40;3.03;;;2.83;;
66169;SDS011;52971;44.024;20.456;2022-07-29T12:08:09;2.30;;;2.13;;
66169;SDS011;52971;44.024;20.456;2022-07-29T12:10:37;2.25;;;2.05;;
66169;SDS011;52971;44.024;20.456;2022-07-29T12:13:03;2.33;;;1.90;;
66169;SDS011;52971;44.024;20.456;2022-07-29T12:15:28;1.60;;;1.42;;
66169;SDS011;52971;44.024;20.456;2022-07-29T12:17:54;1.75;;;1.65;;
66169;SDS011;52971;44.024;20.456;2022-07-29T12:20:23;3.17;;;1.85;;
66169;SDS011;52971;44.024;20.456;2022-07-29T12:23:03;3.35;;;1.27;;
66169;SDS011;52971;44.024;20.456;2022-07-29T12:25:32;3.20;;;2.00;;
66169;SDS011;52971;44.024;20.456;2022-07-29T12:28:00;2.97;;;2.25;;
66169;SDS011;52971;44.024;20.456;2022-07-29T12:30:37;2.45;;;2.25;;
66169;SDS011;52971;44.024;20.456;2022-07-29T12:33:13;4.80;;;3.50;;
66169;SDS011;52971;44.024;20.456;2022-07-29T12:35:42;3.35;;;2.13;;
66169;SDS011;52971;44.024;20.456;2022-07-29T12:38:12;6.00;;;1.80;;
66169;SDS011;52971;44.024;20.456;2022-07-29T12:40:38;2.00;;;1.88;;
66169;SDS011;52971;44.024;20.456;2022-07-29T12:43:25;2.30;;;1.73;;
66169;SDS011;52971;44.024;20.456;2022-07-29T12:45:51;2.88;;;1.95;;
66169;SDS011;52971;44.024;20.456;2022-07-29T12:48:32;2.35;;;2.15;;
66169;SDS011;52971;44.024;20.456;2022-07-29T12:51:00;1.58;;;1.48;;
66169;SDS011;52971;44.024;20.456;2022-07-29T12:53:27;2.75;;;2.13;;
66169;SDS011;52971;44.024;20.456;2022-07-29T12:55:54;4.80;;;2.00;;
66169;SDS011;52971;44.024;20.456;2022-07-29T12:58:37;2.42;;;1.35;;
66169;SDS011;52971;44.024;20.456;2022-07-29T13:01:18;1.60;;;1.50;;
66169;SDS011;52971;44.024;20.456;2022-07-29T13:03:55;2.10;;;1.58;;
66169;SDS011;52971;44.024;20.456;2022-07-29T13:06:32;2.30;;;1.90;;
66169;SDS011;52971;44.024;20.456;2022-07-29T13:09:15;2.38;;;1.52;;
66169;SDS011;52971;44.024;20.456;2022-07-29T13:11:49;4.60;;;2.47;;
66169;SDS011;52971;44.024;20.456;2022-07-29T13:19:34;2.03;;;1.80;;
66169;SDS011;52971;44.024;20.456;2022-07-29T13:22:11;5.18;;;1.60;;
66169;SDS011;52971;44.024;20.456;2022-07-29T13:24:46;2.97;;;2.10;;
66169;SDS011;52971;44.024;20.456;2022-07-29T13:27:26;2.58;;;1.92;;
66169;SDS011;52971;44.024;20.456;2022-07-29T13:29:53;3.05;;;2.00;;
66169;SDS011;52971;44.024;20.456;2022-07-29T13:32:21;2.08;;;1.33;;
66169;SDS011;52971;44.024;20.456;2022-07-29T13:34:48;2.85;;;2.20;;
66169;SDS011;52971;44.024;20.456;2022-07-29T13:37:13;3.38;;;1.90;;
66169;SDS011;52971;44.024;20.456;2022-07-29T13:39:39;1.83;;;1.70;;
66169;SDS011;52971;44.024;20.456;2022-07-29T13:42:05;3.00;;;1.75;;
66169;SDS011;52971;44.024;20.456;2022-07-29T13:44:31;4.15;;;2.25;;
66169;SDS011;52971;44.024;20.456;2022-07-29T13:46:57;4.05;;;1.77;;
66169;SDS011;52971;44.024;20.456;2022-07-29T13:49:24;2.67;;;2.00;;
66169;SDS011;52971;44.024;20.456;2022-07-29T13:51:50;2.72;;;2.03;;
66169;SDS011;52971;44.024;20.456;2022-07-29T13:54:16;2.45;;;1.83;;
66169;SDS011;52971;44.024;20.456;2022-07-29T13:56:41;2.30;;;2.10;;
66169;SDS011;52971;44.024;20.456;2022-07-29T13:59:07;2.08;;;1.65;;
66169;SDS011;52971;44.024;20.456;2022-07-29T14:01:33;4.13;;;2.70;;
66169;SDS011;52971;44.024;20.456;2022-07-29T14:03:59;2.03;;;1.80;;
66169;SDS011;52971;44.024;20.456;2022-07-29T14:06:25;2.33;;;1.70;;
66169;SDS011;52971;44.024;20.456;2022-07-29T14:08:51;1.90;;;1.80;;
66169;SDS011;52971;44.024;20.456;2022-07-29T14:11:16;2.13;;;1.58;;
66169;SDS011;52971;44.024;20.456;2022-07-29T14:13:42;2.47;;;1.85;;
66169;SDS011;52971;44.024;20.456;2022-07-29T14:16:07;1.67;;;1.58;;
66169;SDS011;52971;44.024;20.456;2022-07-29T14:18:33;1.95;;;1.85;;
66169;SDS011;52971;44.024;20.456;2022-07-29T14:20:58;2.33;;;2.20;;
66169;SDS011;52971;44.024;20.456;2022-07-29T14:23:24;2.35;;;2.10;;
66169;SDS011;52971;44.024;20.456;2022-07-29T14:25:49;3.05;;;2.08;;
66169;SDS011;52971;44.024;20.456;2022-07-29T14:28:15;1.80;;;1.70;;
66169;SDS011;52971;44.024;20.456;2022-07-29T14:30:41;2.45;;;1.70;;
66169;SDS011;52971;44.024;20.456;2022-07-29T14:33:07;2.13;;;1.92;;
66169;SDS011;52971;44.024;20.456;2022-07-29T14:35:33;2.10;;;2.00;;
66169;SDS011;52971;44.024;20.456;2022-07-29T14:37:58;2.38;;;2.17;;
66169;SDS011;52971;44.024;20.456;2022-07-29T14:40:23;2.95;;;2.15;;
66169;SDS011;52971;44.024;20.456;2022-07-29T14:42:50;2.53;;;2.17;;
66169;SDS011;52971;44.024;20.456;2022-07-29T14:45:16;4.07;;;2.78;;
66169;SDS011;52971;44.024;20.456;2022-07-29T14:47:41;3.25;;;2.50;;
66169;SDS011;52971;44.024;20.456;2022-07-29T14:50:07;2.28;;;1.80;;
66169;SDS011;52971;44.024;20.456;2022-07-29T14:52:33;2.95;;;2.20;;
66169;SDS011;52971;44.024;20.456;2022-07-29T14:54:59;2.42;;;2.05;;
66169;SDS011;52971;44.024;20.456;2022-07-29T14:57:24;6.15;;;1.80;;
66169;SDS011;52971;44.024;20.456;2022-07-29T14:59:50;3.10;;;1.55;;
66169;SDS011;52971;44.024;20.456;2022-07-29T15:02:16;3.20;;;1.95;;
66169;SDS011;52971;44.024;20.456;2022-07-29T15:04:41;3.40;;;1.85;;
66169;SDS011;52971;44.024;20.456;2022-07-29T15:07:07;2.08;;;1.85;;
66169;SDS011;52971;44.024;20.456;2022-07-29T15:09:33;2.38;;;1.38;;
66169;SDS011;52971;44.024;20.456;2022-07-29T15:11:58;4.30;;;2.35;;
66169;SDS011;52971;44.024;20.456;2022-07-29T15:14:24;4.28;;;2.13;;
66169;SDS011;52971;44.024;20.456;2022-07-29T15:16:50;3.70;;;2.65;;
66169;SDS011;52971;44.024;20.456;2022-07-29T15:19:16;3.30;;;2.88;;
66169;SDS011;52971;44.024;20.456;2022-07-29T15:21:41;4.07;;;2.22;;
66169;SDS011;52971;44.024;20.456;2022-07-29T15:24:07;2.53;;;2.33;;
66169;SDS011;52971;44.024;20.456;2022-07-29T15:26:33;2.83;;;2.63;;
66169;SDS011;52971;44.024;20.456;2022-07-29T15:28:59;3.97;;;2.05;;
66169;SDS011;52971;44.024;20.456;2022-07-29T15:31:24;5.57;;;4.90;;
66169;SDS011;52971;44.024;20.456;2022-07-29T15:33:50;3.25;;;3.03;;